createdAt,value
2018-02-07T00:02:22.393Z,-3.30
2018-02-07T00:04:50.729Z,-3.30
2018-02-07T00:07:19.074Z,-3.30
2018-02-07T00:09:47.421Z,-3.30
2018-02-07T00:12:15.945Z,-3.30
2018-02-07T00:14:44.267Z,-3.30
2018-02-07T00:17:12.592Z,-3.30
2018-02-07T00:19:41.944Z,-3.40
2018-02-07T00:22:10.277Z,-3.40
2018-02-07T00:24:39.452Z,-3.60
2018-02-07T00:27:07.784Z,-3.60
2018-02-07T00:29:36.870Z,-3.60
2018-02-07T00:32:05.217Z,-3.60
2018-02-07T00:34:33.530Z,-3.60
2018-02-07T00:37:01.965Z,-3.60
2018-02-07T00:39:31.129Z,-3.50
2018-02-07T00:41:59.460Z,-3.50
2018-02-07T00:44:28.560Z,-3.50
2018-02-07T00:46:56.899Z,-3.50
2018-02-07T00:49:25.247Z,-3.50
2018-02-07T00:51:53.589Z,-3.50
2018-02-07T00:54:21.965Z,-3.40
2018-02-07T00:56:50.294Z,-3.40
2018-02-07T00:59:18.593Z,-3.40
2018-02-07T01:01:46.952Z,-3.40
2018-02-07T01:04:15.359Z,-3.50
2018-02-07T01:06:43.763Z,-3.50
2018-02-07T01:09:12.129Z,-3.50
2018-02-07T01:11:40.450Z,-3.60
2018-02-07T01:14:08.745Z,-3.60
2018-02-07T01:16:37.099Z,-3.60
2018-02-07T01:19:05.488Z,-3.60
2018-02-07T01:21:33.818Z,-3.70
2018-02-07T01:24:02.191Z,-3.70
2018-02-07T01:26:30.519Z,-3.70
2018-02-07T01:28:59.618Z,-3.70
2018-02-07T01:31:28.769Z,-3.70
2018-02-07T01:33:57.116Z,-3.70
2018-02-07T01:36:25.449Z,-3.70
2018-02-07T01:38:53.808Z,-3.60
2018-02-07T01:41:22.914Z,-3.60
2018-02-07T01:43:52.084Z,-3.60
2018-02-07T01:46:20.512Z,-3.60
2018-02-07T01:48:48.848Z,-3.60
2018-02-07T01:51:17.189Z,-3.60
2018-02-07T01:53:45.671Z,-3.60
2018-02-07T01:56:14.114Z,-3.60
2018-02-07T01:58:42.425Z,-3.60
2018-02-07T02:01:10.805Z,-3.70
2018-02-07T02:03:39.145Z,-3.60
2018-02-07T02:06:07.482Z,-3.60
2018-02-07T02:08:35.801Z,-3.60
2018-02-07T02:11:04.138Z,-3.60
2018-02-07T02:13:33.382Z,-3.50
2018-02-07T02:16:01.709Z,-3.50
2018-02-07T02:18:30.033Z,-3.60
2018-02-07T02:21:00.058Z,-3.60
2018-02-07T02:23:29.144Z,-3.60
2018-02-07T02:25:57.502Z,-3.60
2018-02-07T02:28:26.600Z,-3.60
2018-02-07T02:30:54.966Z,-3.60
2018-02-07T02:33:24.046Z,-3.50
2018-02-07T02:36:04.332Z,-3.50
2018-02-07T02:38:32.794Z,-3.60
2018-02-07T02:41:01.204Z,-3.60
2018-02-07T02:43:29.529Z,-3.70
2018-02-07T02:45:58.615Z,-3.80
2018-02-07T02:48:27.021Z,-3.80
2018-02-07T02:50:56.120Z,-3.70
2018-02-07T02:53:25.204Z,-3.60
2018-02-07T02:55:53.538Z,-3.60
2018-02-07T02:58:22.641Z,-3.50
2018-02-07T03:00:51.798Z,-3.60
2018-02-07T03:03:20.124Z,-3.60
2018-02-07T03:05:48.449Z,-3.70
2018-02-07T03:08:16.790Z,-3.80
2018-02-07T03:10:45.114Z,-3.80
2018-02-07T03:13:14.279Z,-3.80
2018-02-07T03:15:42.661Z,-3.80
2018-02-07T03:18:10.997Z,-3.80
2018-02-07T03:23:14.612Z,-3.60
2018-02-07T03:25:43.026Z,-3.60
2018-02-07T03:28:11.348Z,-3.60
2018-02-07T03:30:39.774Z,-3.70
2018-02-07T03:33:08.109Z,-3.70
2018-02-07T03:35:36.482Z,-3.70
2018-02-07T03:38:04.963Z,-3.70
2018-02-07T03:40:34.029Z,-3.60
2018-02-07T03:43:02.378Z,-3.60
2018-02-07T03:45:30.704Z,-3.70
2018-02-07T03:47:59.040Z,-3.70
2018-02-07T03:50:27.446Z,-3.60
2018-02-07T03:52:55.794Z,-3.60
2018-02-07T03:55:24.202Z,-3.60
2018-02-07T03:57:52.562Z,-3.60
2018-02-07T04:00:31.694Z,-3.40
2018-02-07T04:03:00.828Z,-3.40
2018-02-07T04:05:30.039Z,-3.30
2018-02-07T04:07:58.356Z,-3.40
2018-02-07T04:10:26.710Z,-3.40
2018-02-07T04:12:55.834Z,-3.30
2018-02-07T04:15:24.163Z,-3.40
2018-02-07T04:17:52.556Z,-3.40
2018-02-07T04:20:20.885Z,-3.50
2018-02-07T04:22:49.982Z,-3.60
2018-02-07T04:25:19.073Z,-3.60
2018-02-07T04:27:47.404Z,-3.60
2018-02-07T04:30:15.894Z,-3.60
2018-02-07T04:32:44.222Z,-3.60
2018-02-07T04:35:12.548Z,-3.60
2018-02-07T04:37:40.868Z,-3.70
2018-02-07T04:40:09.206Z,-3.70
2018-02-07T04:42:37.591Z,-3.80
2018-02-07T04:45:05.966Z,-3.90
2018-02-07T04:47:34.317Z,-3.80
2018-02-07T04:50:03.509Z,-3.80
2018-02-07T04:52:31.854Z,-3.80
2018-02-07T04:55:00.251Z,-3.80
2018-02-07T04:57:28.572Z,-3.80
2018-02-07T04:59:56.912Z,-3.80
2018-02-07T05:02:25.241Z,-3.80
2018-02-07T05:04:53.565Z,-3.70
2018-02-07T05:07:22.037Z,-3.70
2018-02-07T05:09:50.969Z,-3.70
2018-02-07T05:12:20.073Z,-3.70
2018-02-07T05:14:48.410Z,-3.70
2018-02-07T05:17:16.743Z,-3.60
2018-02-07T05:19:45.133Z,-3.60
2018-02-07T05:22:13.475Z,-3.50
2018-02-07T05:24:41.801Z,-3.50
2018-02-07T05:27:10.126Z,-3.50
2018-02-07T05:29:39.216Z,-3.50
2018-02-07T05:32:07.647Z,-3.50
2018-02-07T05:34:36.745Z,-3.40
2018-02-07T05:37:05.842Z,-3.40
2018-02-07T05:39:34.197Z,-3.40
2018-02-07T05:42:02.530Z,-3.50
2018-02-07T05:44:31.774Z,-3.40
2018-02-07T05:47:00.100Z,-3.40
2018-02-07T05:49:28.462Z,-3.40
2018-02-07T05:51:56.887Z,-3.40
2018-02-07T05:54:26.123Z,-3.50
2018-02-07T05:56:54.525Z,-3.60
2018-02-07T05:59:23.627Z,-3.60
2018-02-07T06:01:52.726Z,-3.60
2018-02-07T06:04:21.121Z,-3.60
2018-02-07T06:06:49.470Z,-3.60
2018-02-07T06:09:18.018Z,-3.60
2018-02-07T06:11:47.097Z,-3.70
2018-02-07T06:14:15.443Z,-3.70
2018-02-07T06:16:43.790Z,-3.70
2018-02-07T06:19:12.193Z,-3.70
2018-02-07T06:21:40.574Z,-3.70
2018-02-07T06:24:08.914Z,-3.80
2018-02-07T06:26:37.241Z,-3.80
2018-02-07T06:29:05.557Z,-3.80
2018-02-07T06:31:33.913Z,-3.80
2018-02-07T06:34:02.281Z,-3.80
2018-02-07T06:36:30.624Z,-3.90
2018-02-07T06:38:59.029Z,-3.90
2018-02-07T06:41:28.129Z,-4.00
2018-02-07T06:43:56.482Z,-4.00
2018-02-07T06:46:24.889Z,-4.10
2018-02-07T06:48:53.248Z,-4.10
2018-02-07T06:51:21.686Z,-4.20
2018-02-07T06:53:50.097Z,-4.20
2018-02-07T06:56:19.206Z,-4.20
2018-02-07T06:58:47.531Z,-4.20
2018-02-07T07:01:15.876Z,-4.20
2018-02-07T07:03:44.266Z,-4.20
2018-02-07T07:06:12.609Z,-4.20
2018-02-07T07:08:40.940Z,-4.20
2018-02-07T07:11:09.307Z,-4.20
2018-02-07T07:13:37.639Z,-4.20
2018-02-07T07:16:06.073Z,-4.20
2018-02-07T07:18:34.428Z,-4.10
2018-02-07T07:21:03.529Z,-4.10
2018-02-07T07:23:31.869Z,-4.10
2018-02-07T07:26:00.221Z,-4.00
2018-02-07T07:28:28.727Z,-3.90
2018-02-07T07:30:57.825Z,-3.80
2018-02-07T07:33:26.910Z,-3.80
2018-02-07T07:35:55.245Z,-3.80
2018-02-07T07:38:23.587Z,-3.80
2018-02-07T07:40:52.021Z,-3.90
2018-02-07T07:43:21.104Z,-3.80
2018-02-07T07:45:49.444Z,-3.80
2018-02-07T07:48:17.887Z,-3.70
2018-02-07T07:50:46.226Z,-3.70
2018-02-07T07:53:14.702Z,-3.70
2018-02-07T07:55:43.029Z,-3.80
2018-02-07T07:58:11.365Z,-3.80
2018-02-07T08:00:40.468Z,-3.80
2018-02-07T08:03:09.162Z,-3.80
2018-02-07T08:05:37.564Z,-3.70
2018-02-07T08:08:06.136Z,-3.70
2018-02-07T08:10:34.826Z,-3.70
2018-02-07T08:13:04.072Z,-3.60
2018-02-07T08:15:32.640Z,-3.60
2018-02-07T08:18:01.017Z,-3.60
2018-02-07T08:20:29.356Z,-3.60
2018-02-07T08:22:58.489Z,-3.60
2018-02-07T08:25:26.829Z,-3.60
2018-02-07T08:27:55.171Z,-3.50
2018-02-07T08:30:23.569Z,-3.50
2018-02-07T08:32:51.922Z,-3.40
2018-02-07T08:35:20.254Z,-3.40
2018-02-07T08:37:48.588Z,-3.40
2018-02-07T08:40:16.934Z,-3.40
2018-02-07T08:42:45.454Z,-3.60
2018-02-07T08:45:13.789Z,-3.70
2018-02-07T08:47:42.893Z,-3.70
2018-02-07T08:50:12.003Z,-3.60
2018-02-07T08:52:41.108Z,-3.50
2018-02-07T08:55:09.527Z,-3.50
2018-02-07T08:57:37.918Z,-3.40
2018-02-07T09:00:07.023Z,-3.20
2018-02-07T09:02:35.363Z,-3.20
2018-02-07T09:05:03.701Z,-3.10
2018-02-07T09:07:32.933Z,-3.00
2018-02-07T09:10:01.338Z,-3.00
2018-02-07T09:12:29.653Z,-2.90
2018-02-07T09:14:58.006Z,-2.90
2018-02-07T09:17:26.344Z,-2.90
2018-02-07T09:19:55.017Z,-2.90
2018-02-07T09:22:23.354Z,-2.90
2018-02-07T09:24:52.517Z,-3.00
2018-02-07T09:27:20.861Z,-3.00
2018-02-07T09:29:49.982Z,-3.00
2018-02-07T09:32:19.195Z,-2.90
2018-02-07T09:34:48.322Z,-2.90
2018-02-07T09:37:16.906Z,-2.90
2018-02-07T09:39:46.011Z,-2.70
2018-02-07T09:42:15.113Z,-2.70
2018-02-07T09:44:44.253Z,-2.60
2018-02-07T09:47:12.563Z,-2.60
2018-02-07T09:49:40.898Z,-2.60
2018-02-07T09:52:10.004Z,-2.70
2018-02-07T09:54:39.110Z,-2.70
2018-02-07T09:57:08.682Z,-2.80
2018-02-07T09:59:37.012Z,-2.80
2018-02-07T10:02:05.369Z,-2.70
2018-02-07T10:04:33.767Z,-2.80
2018-02-07T10:07:02.197Z,-2.80
2018-02-07T10:09:31.466Z,-2.90
2018-02-07T10:11:59.796Z,-2.90
2018-02-07T10:14:28.901Z,-2.70
2018-02-07T10:16:57.266Z,-2.80
2018-02-07T10:19:25.632Z,-2.70
2018-02-07T10:21:54.024Z,-2.60
2018-02-07T10:24:22.373Z,-2.60
2018-02-07T10:26:51.489Z,-2.50
2018-02-07T10:29:20.597Z,-2.40
2018-02-07T10:31:49.710Z,-2.40
2018-02-07T10:34:19.010Z,-2.30
2018-02-07T10:36:47.357Z,-2.40
2018-02-07T10:39:15.710Z,-2.40
2018-02-07T10:41:44.822Z,-2.40
2018-02-07T10:44:13.960Z,-2.30
2018-02-07T10:46:42.436Z,-2.30
2018-02-07T10:49:10.759Z,-2.20
2018-02-07T10:51:39.123Z,-2.20
2018-02-07T10:54:07.586Z,-2.10
2018-02-07T10:56:35.940Z,-2.10
2018-02-07T10:59:04.371Z,-2.10
2018-02-07T11:01:32.767Z,-2.00
2018-02-07T11:04:01.922Z,-2.10
2018-02-07T11:06:30.266Z,-2.10
2018-02-07T11:08:59.378Z,-2.00
2018-02-07T11:11:28.561Z,-2.00
2018-02-07T11:13:56.902Z,-2.00
2018-02-07T11:16:25.258Z,-2.00
2018-02-07T11:18:53.632Z,-2.00
2018-02-07T11:21:21.979Z,-1.90
2018-02-07T11:23:50.305Z,-1.90
2018-02-07T11:26:18.657Z,-1.80
2018-02-07T11:28:47.067Z,-1.80
2018-02-07T11:31:15.420Z,-1.80
2018-02-07T11:33:44.534Z,-1.70
2018-02-07T11:36:13.641Z,-1.70
2018-02-07T11:38:42.738Z,-1.60
2018-02-07T11:41:11.924Z,-1.50
2018-02-07T11:43:40.280Z,-1.50
2018-02-07T11:46:08.622Z,-1.40
2018-02-07T11:48:36.968Z,-1.20
2018-02-07T11:51:05.322Z,-1.20
2018-02-07T11:53:34.518Z,-0.90
2018-02-07T11:56:02.845Z,-1.00
2018-02-07T11:58:31.206Z,-0.90
2018-02-07T12:01:00.328Z,-1.00
2018-02-07T12:03:29.734Z,-1.00
2018-02-07T12:05:58.918Z,-1.00
2018-02-07T12:08:27.264Z,-1.00
2018-02-07T12:10:55.691Z,-1.00
2018-02-07T12:13:24.013Z,-0.90
2018-02-07T12:15:52.406Z,-0.90
2018-02-07T12:18:20.803Z,-0.80
2018-02-07T12:20:49.146Z,-0.60
2018-02-07T12:23:17.495Z,-0.60
2018-02-07T12:25:46.601Z,-0.40
2018-02-07T12:28:16.072Z,-0.30
2018-02-07T12:30:45.094Z,-0.30
2018-02-07T12:33:13.965Z,-0.20
2018-02-07T12:35:42.761Z,-0.10
2018-02-07T12:38:11.560Z,0.10
2018-02-07T12:40:40.747Z,0.30
2018-02-07T12:43:09.181Z,0.30
2018-02-07T12:45:37.502Z,0.60
2018-02-07T12:48:05.869Z,0.90
2018-02-07T12:50:34.225Z,0.90
2018-02-07T12:53:02.561Z,0.90
2018-02-07T12:55:31.029Z,0.90
2018-02-07T12:57:59.369Z,1.00
2018-02-07T13:00:27.715Z,1.20
2018-02-07T13:02:56.054Z,1.50
2018-02-07T13:05:24.381Z,1.70
2018-02-07T13:07:52.788Z,1.80
2018-02-07T13:10:21.172Z,1.90
2018-02-07T13:12:49.542Z,2.20
2018-02-07T13:15:18.705Z,1.90
2018-02-07T13:17:47.140Z,1.90
2018-02-07T13:20:16.324Z,1.70
2018-02-07T13:22:44.862Z,1.70
2018-02-07T13:25:13.489Z,1.90
2018-02-07T13:27:41.945Z,2.00
2018-02-07T13:30:10.949Z,2.10
2018-02-07T13:32:40.111Z,2.20
2018-02-07T13:35:08.455Z,2.10
2018-02-07T13:37:37.587Z,2.10
2018-02-07T13:40:05.948Z,2.00
2018-02-07T13:42:35.056Z,2.10
2018-02-07T13:45:03.467Z,2.00
2018-02-07T13:47:31.822Z,2.20
2018-02-07T13:50:00.157Z,2.30
2018-02-07T13:52:28.492Z,2.40
2018-02-07T13:54:56.821Z,2.60
2018-02-07T13:57:26.066Z,1.30
2018-02-07T13:59:54.402Z,1.30
2018-02-07T14:02:22.738Z,0.70
2018-02-07T14:04:51.085Z,0.40
2018-02-07T14:07:19.443Z,0.20
2018-02-07T14:09:47.868Z,0.20
2018-02-07T14:12:16.194Z,0.00
2018-02-07T14:14:44.556Z,0.10
2018-02-07T14:17:12.974Z,0.00
2018-02-07T14:19:41.401Z,0.00
2018-02-07T14:22:09.862Z,0.10
2018-02-07T14:24:39.126Z,0.00
2018-02-07T14:27:07.471Z,0.00
2018-02-07T14:29:35.837Z,-0.20
2018-02-07T14:32:04.222Z,-0.20
2018-02-07T14:34:32.694Z,-0.20
2018-02-07T14:37:01.053Z,-0.20
2018-02-07T14:39:29.415Z,0.10
2018-02-07T14:42:03.959Z,0.90
2018-02-07T14:44:37.248Z,0.90
2018-02-07T14:47:06.576Z,0.90
2018-02-07T14:49:34.942Z,1.00
2018-02-07T14:52:03.329Z,1.00
2018-02-07T14:54:31.697Z,1.00
2018-02-07T14:57:00.047Z,1.20
2018-02-07T14:59:29.204Z,0.50
2018-02-07T15:01:57.537Z,0.40
2018-02-07T15:04:25.912Z,0.30
2018-02-07T15:06:54.294Z,-0.10
2018-02-07T15:09:22.659Z,-0.40
2018-02-07T15:11:51.224Z,-0.70
2018-02-07T15:14:20.405Z,-1.20
2018-02-07T15:16:48.758Z,-1.20
2018-02-07T15:19:17.117Z,-1.30
2018-02-07T15:21:46.332Z,-1.50
2018-02-07T15:24:15.518Z,-1.50
2018-02-07T15:26:43.877Z,-1.50
2018-02-07T15:29:12.288Z,-1.60
2018-02-07T15:31:40.682Z,-1.70
2018-02-07T15:34:09.053Z,-1.80
2018-02-07T15:36:37.492Z,-1.90
2018-02-07T15:39:06.674Z,-2.10
2018-02-07T15:41:35.127Z,-2.10
2018-02-07T15:44:04.237Z,-2.30
2018-02-07T15:46:33.384Z,-2.40
2018-02-07T15:49:02.020Z,-2.40
2018-02-07T15:51:31.129Z,-2.60
2018-02-07T15:54:00.260Z,-2.70
2018-02-07T15:56:28.611Z,-2.70
2018-02-07T15:58:57.754Z,-2.80
2018-02-07T16:01:26.173Z,-2.80
2018-02-07T16:03:54.540Z,-2.90
2018-02-07T16:06:22.887Z,-3.00
2018-02-07T16:08:51.250Z,-3.10
2018-02-07T16:11:19.608Z,-3.10
2018-02-07T16:13:48.542Z,-3.10
2018-02-07T16:16:16.881Z,-3.20
2018-02-07T16:18:45.229Z,-3.20
2018-02-07T16:21:13.585Z,-3.30
2018-02-07T16:23:42.037Z,-3.40
2018-02-07T16:26:10.444Z,-3.40
2018-02-07T16:28:38.785Z,-3.50
2018-02-07T16:31:07.134Z,-3.50
2018-02-07T16:33:35.495Z,-3.50
2018-02-07T16:36:03.916Z,-3.60
2018-02-07T16:38:32.374Z,-3.70
2018-02-07T16:41:00.721Z,-3.80
2018-02-07T16:43:29.815Z,-3.90
2018-02-07T16:45:58.946Z,-3.90
2018-02-07T16:48:28.071Z,-4.00
2018-02-07T16:50:56.554Z,-4.00
2018-02-07T16:53:24.926Z,-4.10
2018-02-07T16:55:54.042Z,-4.20
2018-02-07T16:58:22.410Z,-4.20
2018-02-07T17:00:50.765Z,-4.20
2018-02-07T17:03:19.198Z,-4.10
2018-02-07T17:05:47.552Z,-4.20
2018-02-07T17:08:15.889Z,-4.20
2018-02-07T17:10:45.057Z,-4.20
2018-02-07T17:13:13.409Z,-4.30
2018-02-07T17:15:41.896Z,-4.30
2018-02-07T17:18:11.087Z,-4.60
2018-02-07T17:20:39.485Z,-4.60
2018-02-07T17:23:08.606Z,-4.60
2018-02-07T17:25:37.783Z,-4.70
2018-02-07T17:28:06.263Z,-4.70
2018-02-07T17:30:34.634Z,-4.80
2018-02-07T17:33:02.985Z,-4.80
2018-02-07T17:35:32.161Z,-4.90
2018-02-07T17:38:00.554Z,-4.90
2018-02-07T17:40:28.902Z,-5.00
2018-02-07T17:42:57.398Z,-5.00
2018-02-07T17:45:25.766Z,-5.10
2018-02-07T17:47:54.855Z,-5.10
2018-02-07T17:50:23.166Z,-5.10
2018-02-07T17:52:52.263Z,-5.20
2018-02-07T17:55:20.611Z,-5.20
2018-02-07T17:57:48.918Z,-5.30
2018-02-07T18:00:17.342Z,-5.40
2018-02-07T18:02:45.663Z,-5.50
2018-02-07T18:05:13.991Z,-5.50
2018-02-07T18:07:42.291Z,-5.60
2018-02-07T18:10:10.612Z,-5.60
2018-02-07T18:12:39.093Z,-5.70
2018-02-07T18:15:07.430Z,-5.70
2018-02-07T18:17:35.803Z,-5.70
2018-02-07T18:20:04.277Z,-5.70
2018-02-07T18:22:32.666Z,-5.70
2018-02-07T18:25:01.014Z,-5.80
2018-02-07T18:27:29.546Z,-5.80
2018-02-07T18:29:58.641Z,-5.90
2018-02-07T18:32:26.960Z,-5.90
2018-02-07T18:34:56.025Z,-6.00
2018-02-07T18:37:24.343Z,-6.00
2018-02-07T18:39:52.647Z,-6.10
2018-02-07T18:42:21.750Z,-6.20
2018-02-07T18:44:50.095Z,-6.20
2018-02-07T18:47:18.405Z,-6.20
2018-02-07T18:49:46.725Z,-6.30
2018-02-07T18:52:15.057Z,-6.40
2018-02-07T18:54:43.383Z,-6.50
2018-02-07T18:57:11.702Z,-6.60
2018-02-07T18:59:40.902Z,-6.60
2018-02-07T19:02:09.216Z,-6.60
2018-02-07T19:04:38.307Z,-6.60
2018-02-07T19:07:07.389Z,-6.60
2018-02-07T19:09:35.737Z,-6.60
2018-02-07T19:12:04.333Z,-6.60
2018-02-07T19:14:32.674Z,-6.50
2018-02-07T19:17:00.998Z,-6.60
2018-02-07T19:19:30.081Z,-6.60
2018-02-07T19:21:59.218Z,-6.60
2018-02-07T19:24:27.584Z,-6.60
2018-02-07T19:26:55.927Z,-6.50
2018-02-07T19:29:24.234Z,-6.50
2018-02-07T19:31:52.558Z,-6.60
2018-02-07T19:34:20.889Z,-6.70
2018-02-07T19:36:49.299Z,-6.90
2018-02-07T19:39:17.625Z,-6.90
2018-02-07T19:41:45.933Z,-6.90
2018-02-07T19:44:15.038Z,-6.90
2018-02-07T19:46:44.131Z,-6.90
2018-02-07T19:49:12.444Z,-7.00
2018-02-07T19:51:41.630Z,-7.00
2018-02-07T19:54:10.142Z,-7.00
2018-02-07T19:56:38.495Z,-7.00
2018-02-07T19:59:06.890Z,-7.00
2018-02-07T20:01:35.221Z,-7.00
2018-02-07T20:04:03.549Z,-7.00
2018-02-07T20:06:31.879Z,-7.00
2018-02-07T20:09:00.190Z,-7.00
2018-02-07T20:11:29.397Z,-7.10
2018-02-07T20:13:58.475Z,-7.20
2018-02-07T20:16:26.811Z,-7.20
2018-02-07T20:18:55.915Z,-7.30
2018-02-07T20:21:24.213Z,-7.30
2018-02-07T20:23:53.757Z,-7.40
2018-02-07T20:26:22.073Z,-7.40
2018-02-07T20:28:50.399Z,-7.50
2018-02-07T20:31:18.829Z,-7.50
2018-02-07T20:33:47.142Z,-7.60
2018-02-07T20:36:15.519Z,-7.60
2018-02-07T20:38:43.846Z,-7.70
2018-02-07T20:41:12.188Z,-7.60
2018-02-07T20:43:40.524Z,-7.40
2018-02-07T20:46:08.847Z,-7.50
2018-02-07T20:48:38.001Z,-7.60
2018-02-07T20:51:06.338Z,-7.60
2018-02-07T20:53:35.448Z,-7.60
2018-02-07T20:56:03.800Z,-7.60
2018-02-07T20:58:32.125Z,-7.60
2018-02-07T21:01:00.521Z,-7.70
2018-02-07T21:03:29.604Z,-7.80
2018-02-07T21:05:57.942Z,-7.90
2018-02-07T21:08:26.254Z,-7.90
2018-02-07T21:10:54.563Z,-7.90
2018-02-07T21:13:22.940Z,-8.00
2018-02-07T21:15:51.268Z,-7.90
2018-02-07T21:18:19.565Z,-8.00
2018-02-07T21:20:47.899Z,-8.00
2018-02-07T21:23:16.316Z,-8.00
2018-02-07T21:25:44.709Z,-7.90
2018-02-07T21:28:13.120Z,-7.90
2018-02-07T21:30:42.216Z,-7.90
2018-02-07T21:33:10.530Z,-8.00
2018-02-07T21:35:38.850Z,-8.00
2018-02-07T21:38:07.316Z,-8.10
2018-02-07T21:40:35.649Z,-8.20
2018-02-07T21:43:03.984Z,-8.20
2018-02-07T21:45:32.308Z,-8.20
2018-02-07T21:48:01.440Z,-8.20
2018-02-07T21:50:29.848Z,-8.20
2018-02-07T21:52:58.151Z,-8.10
2018-02-07T21:55:26.466Z,-8.10
2018-02-07T21:57:54.774Z,-8.30
2018-02-07T22:00:23.862Z,-8.50
2018-02-07T22:02:52.251Z,-8.50
2018-02-07T22:05:20.673Z,-8.50
2018-02-07T22:07:49.826Z,-8.60
2018-02-07T22:10:18.138Z,-8.50
2018-02-07T22:12:46.491Z,-8.60
2018-02-07T22:15:14.874Z,-8.50
2018-02-07T22:17:43.259Z,-8.50
2018-02-07T22:20:11.613Z,-8.50
2018-02-07T22:22:39.935Z,-8.40
2018-02-07T22:25:08.250Z,-8.50
2018-02-07T22:27:36.688Z,-8.70
2018-02-07T22:30:05.118Z,-8.70
2018-02-07T22:32:33.442Z,-8.80
2018-02-07T22:35:01.748Z,-8.90
2018-02-07T22:37:30.064Z,-8.90
2018-02-07T22:39:59.291Z,-8.90
2018-02-07T22:42:28.376Z,-9.00
2018-02-07T22:44:56.681Z,-9.00
2018-02-07T22:47:25.876Z,-9.00
2018-02-07T22:49:54.186Z,-9.10
2018-02-07T22:52:22.565Z,-9.00
2018-02-07T22:54:50.890Z,-8.90
2018-02-07T22:57:19.213Z,-9.00
2018-02-07T22:59:47.538Z,-8.90
2018-02-07T23:02:16.609Z,-9.00
2018-02-07T23:04:45.086Z,-9.00
2018-02-07T23:07:13.401Z,-9.00
2018-02-07T23:09:41.715Z,-9.10
2018-02-07T23:12:10.038Z,-9.30
2018-02-07T23:14:38.378Z,-9.20
2018-02-07T23:17:06.779Z,-9.00
2018-02-07T23:19:35.089Z,-8.90
2018-02-07T23:22:04.176Z,-9.10
2018-02-07T23:24:32.500Z,-9.10
2018-02-07T23:27:01.586Z,-9.20
2018-02-07T23:29:29.998Z,-9.20
2018-02-07T23:31:58.321Z,-9.20
2018-02-07T23:34:26.650Z,-9.20
2018-02-07T23:36:54.960Z,-9.20
2018-02-07T23:39:24.155Z,-9.20
2018-02-07T23:41:52.546Z,-9.20
2018-02-07T23:44:20.920Z,-9.30
2018-02-07T23:46:49.236Z,-9.30
2018-02-07T23:49:17.550Z,-9.30
2018-02-07T23:51:46.625Z,-9.20
2018-02-07T23:54:14.980Z,-9.20
2018-02-07T23:56:43.294Z,-9.30
2018-02-07T23:59:11.603Z,-9.10
